Kholmogory, Russia
Current Conditions -  °F | °C
As of 6:30 PM on Wednesday 22 Oct 2014 (Local Time) from ULAA Reporting Station
Broken Clouds Broken Clouds  
Wind Chill:   Ceiling: 3300
Heat Index: 16°   Visibility: 6mi
Dew Point: 10°   Wind: 9mph
Humidity: 79%   Direction: 360°N
Pressure: 30.39"   Gusts: 16mph
Location:  64.23°N, 41.65°E
Report Text: ULAA 221530Z 36004G07MPS 9999 BKN033 BKN/// M09/M12 Q1029 NOSIGRMK QFE771/1028 SC060
Loading
Personal Weather Stations






























Interactive Weather Map
Tropical Storm Tracking
New forecast layout! Learn more

10-Day Weather Forecast

Advertisements
Track Severe Weather on mobile